createdAt,value
2023-03-16T00:02:12.773Z,7.80
2023-03-16T00:04:41.211Z,8.32
2023-03-16T00:07:12.603Z,8.46
2023-03-16T00:09:41.556Z,7.56
2023-03-16T00:12:15.997Z,8.16
2023-03-16T00:14:45.397Z,7.64
2023-03-16T00:17:19.308Z,7.99
2023-03-16T00:19:51.240Z,5.93
2023-03-16T00:22:19.842Z,6.56
2023-03-16T00:24:48.658Z,6.55
2023-03-16T00:27:18.692Z,6.85
2023-03-16T00:29:49.283Z,6.68
2023-03-16T00:32:19.594Z,6.35
2023-03-16T00:34:49.183Z,6.71
2023-03-16T00:37:19.557Z,6.88
2023-03-16T00:39:49.112Z,5.96
2023-03-16T00:42:20.807Z,5.91
2023-03-16T00:44:49.374Z,5.76
2023-03-16T00:47:17.985Z,6.72
2023-03-16T00:49:46.863Z,7.46
2023-03-16T00:52:15.699Z,5.50
2023-03-16T00:54:44.987Z,6.85
2023-03-16T00:57:14.303Z,6.91
2023-03-16T00:59:44.527Z,7.16
2023-03-16T01:02:13.697Z,5.87
2023-03-16T01:04:42.577Z,6.82
2023-03-16T01:07:13.299Z,6.72
2023-03-16T01:09:42.723Z,5.80
2023-03-16T01:12:14.733Z,6.53
2023-03-16T01:14:46.284Z,6.14
2023-03-16T01:17:16.032Z,7.23
2023-03-16T01:19:45.230Z,7.66
2023-03-16T01:22:14.608Z,5.94
2023-03-16T01:24:45.275Z,6.42
2023-03-16T01:27:14.769Z,6.69
2023-03-16T01:29:44.836Z,6.68
2023-03-16T01:32:13.856Z,5.31
2023-03-16T01:34:42.602Z,5.95
2023-03-16T01:37:11.464Z,5.87
2023-03-16T01:39:40.070Z,5.55
2023-03-16T01:42:08.931Z,5.80
2023-03-16T01:44:56.139Z,5.40
2023-03-16T01:47:25.089Z,5.62
2023-03-16T01:49:57.367Z,5.34
2023-03-16T01:52:29.999Z,5.47
2023-03-16T01:55:02.177Z,5.31
2023-03-16T01:57:36.958Z,4.79
2023-03-16T02:00:10.783Z,6.29
2023-03-16T02:02:43.757Z,5.71
2023-03-16T02:05:15.121Z,5.24
2023-03-16T02:07:49.355Z,4.99
2023-03-16T02:10:20.384Z,5.93
2023-03-16T02:12:49.320Z,5.65
2023-03-16T02:15:19.245Z,5.75
2023-03-16T02:17:49.464Z,6.76
2023-03-16T02:20:29.852Z,5.15
2023-03-16T02:22:59.029Z,6.09
2023-03-16T02:25:36.482Z,6.71
2023-03-16T02:28:12.171Z,7.05
2023-03-16T02:30:42.258Z,6.18
2023-03-16T02:33:11.441Z,6.20
2023-03-16T02:35:40.046Z,6.33
2023-03-16T02:38:08.694Z,4.74
2023-03-16T02:40:38.999Z,4.98
2023-03-16T02:43:10.862Z,6.27
2023-03-16T02:45:46.993Z,5.49
2023-03-16T02:48:22.702Z,5.30
2023-03-16T02:50:55.591Z,5.16
2023-03-16T02:53:24.365Z,5.83
2023-03-16T02:55:52.963Z,5.38
2023-03-16T02:58:21.966Z,5.43
2023-03-16T03:00:52.091Z,5.03
2023-03-16T03:03:20.692Z,6.10
2023-03-16T03:05:49.309Z,5.70
2023-03-16T03:08:20.400Z,6.18
2023-03-16T03:10:48.981Z,6.53
2023-03-16T03:13:17.665Z,5.66
2023-03-16T03:15:46.433Z,5.37
2023-03-16T03:18:16.372Z,5.80
2023-03-16T03:20:44.977Z,5.60
2023-03-16T03:23:15.405Z,4.71
2023-03-16T03:25:45.373Z,5.55
2023-03-16T03:28:14.328Z,5.00
2023-03-16T03:30:42.930Z,5.20
2023-03-16T03:33:11.537Z,5.51
2023-03-16T03:35:42.180Z,5.22
2023-03-16T03:38:11.649Z,4.93
2023-03-16T03:40:40.264Z,5.53
2023-03-16T03:43:08.876Z,5.10
2023-03-16T03:45:37.535Z,6.56
2023-03-16T03:48:06.719Z,7.06
2023-03-16T03:50:35.319Z,4.94
2023-03-16T03:53:05.494Z,5.06
2023-03-16T03:55:34.119Z,5.49
2023-03-16T03:58:02.747Z,5.51
2023-03-16T04:00:31.370Z,5.76
2023-03-16T04:03:00.083Z,5.95
2023-03-16T04:05:28.827Z,5.28
2023-03-16T04:07:58.102Z,5.89
2023-03-16T04:10:29.631Z,5.46
2023-03-16T04:12:58.684Z,5.58
2023-03-16T04:15:27.894Z,5.29
2023-03-16T04:17:56.506Z,5.05
2023-03-16T04:20:25.188Z,5.11
2023-03-16T04:22:58.540Z,5.86
2023-03-16T04:25:30.638Z,4.81
2023-03-16T04:27:59.688Z,5.53
2023-03-16T04:30:28.487Z,4.96
2023-03-16T04:32:57.435Z,5.19
2023-03-16T04:35:26.054Z,4.65
2023-03-16T04:37:54.675Z,5.13
2023-03-16T04:40:23.423Z,5.86
2023-03-16T04:42:53.408Z,6.36
2023-03-16T04:45:22.221Z,5.31
2023-03-16T04:47:51.070Z,5.29
2023-03-16T04:50:19.903Z,5.88
2023-03-16T04:52:48.549Z,5.19
2023-03-16T04:55:17.274Z,5.62
2023-03-16T04:57:45.971Z,5.62
2023-03-16T05:00:19.403Z,5.73
2023-03-16T05:02:48.618Z,4.86
2023-03-16T05:05:17.332Z,5.15
2023-03-16T05:07:46.567Z,5.17
2023-03-16T05:10:17.219Z,6.72
2023-03-16T05:12:46.078Z,5.79
2023-03-16T05:15:16.092Z,4.82
2023-03-16T05:17:44.831Z,5.10
2023-03-16T05:20:26.049Z,5.19
2023-03-16T05:22:54.779Z,5.38
2023-03-16T05:25:23.457Z,5.35
2023-03-16T05:27:55.013Z,5.98
2023-03-16T05:30:25.251Z,5.62
2023-03-16T05:32:55.570Z,5.04
2023-03-16T05:35:24.481Z,4.69
2023-03-16T05:37:53.063Z,4.43
2023-03-16T05:40:23.225Z,5.19
2023-03-16T05:42:57.533Z,5.16
2023-03-16T05:45:27.730Z,4.60
2023-03-16T05:47:56.364Z,4.52
2023-03-16T05:50:25.268Z,4.72
2023-03-16T05:52:54.245Z,5.98
2023-03-16T05:55:23.559Z,5.71
2023-03-16T05:57:52.126Z,6.11
2023-03-16T06:00:22.834Z,5.45
2023-03-16T06:02:53.076Z,5.33
2023-03-16T06:05:24.455Z,5.81
2023-03-16T06:07:53.537Z,5.40
2023-03-16T06:10:22.978Z,5.44
2023-03-16T06:12:51.749Z,5.64
2023-03-16T06:15:20.879Z,5.15
2023-03-16T06:17:49.440Z,5.71
2023-03-16T06:20:19.672Z,4.65
2023-03-16T06:22:48.332Z,4.42
2023-03-16T06:25:17.927Z,4.93
2023-03-16T06:27:46.644Z,5.49
2023-03-16T06:30:16.437Z,5.98
2023-03-16T06:32:46.397Z,5.91
2023-03-16T06:35:15.461Z,5.73
2023-03-16T06:37:45.449Z,5.36
2023-03-16T06:40:14.937Z,5.31
2023-03-16T06:42:45.684Z,5.03
2023-03-16T06:45:16.696Z,5.61
2023-03-16T06:47:45.542Z,5.72
2023-03-16T06:50:14.179Z,5.78
2023-03-16T06:52:44.350Z,5.47
2023-03-16T06:55:14.485Z,5.68
2023-03-16T06:57:43.125Z,5.69
2023-03-16T07:00:15.592Z,5.39
2023-03-16T07:02:44.285Z,6.46
2023-03-16T07:05:14.320Z,5.86
2023-03-16T07:07:45.461Z,6.60
2023-03-16T07:10:16.020Z,5.96
2023-03-16T07:12:45.131Z,5.93
2023-03-16T07:15:14.399Z,5.19
2023-03-16T07:17:43.680Z,6.39
2023-03-16T07:20:13.232Z,5.69
2023-03-16T07:22:43.905Z,6.35
2023-03-16T07:25:13.993Z,6.56
2023-03-16T07:27:43.912Z,6.31
2023-03-16T07:30:14.375Z,5.87
2023-03-16T07:32:43.257Z,5.84
2023-03-16T07:35:12.701Z,5.56
2023-03-16T07:37:42.068Z,6.08
2023-03-16T07:40:14.060Z,6.31
2023-03-16T07:42:42.946Z,6.12
2023-03-16T07:45:12.468Z,5.96
2023-03-16T07:47:41.776Z,6.54
2023-03-16T07:50:11.802Z,6.17
2023-03-16T07:52:40.997Z,5.51
2023-03-16T07:55:11.894Z,5.57
2023-03-16T07:57:42.565Z,5.59
2023-03-16T08:00:14.151Z,5.58
2023-03-16T08:02:43.050Z,6.07
2023-03-16T08:05:12.884Z,5.63
2023-03-16T08:07:41.460Z,6.22
2023-03-16T08:10:12.690Z,5.86
2023-03-16T08:12:41.821Z,5.87
2023-03-16T08:15:11.847Z,6.00
2023-03-16T08:17:41.816Z,5.89
2023-03-16T08:20:14.597Z,5.80
2023-03-16T08:22:46.796Z,6.58
2023-03-16T08:25:17.092Z,6.04
2023-03-16T08:27:45.643Z,5.74
2023-03-16T08:30:16.698Z,6.25
2023-03-16T08:32:45.354Z,5.98
2023-03-16T08:35:16.556Z,6.63
2023-03-16T08:37:46.409Z,6.89
2023-03-16T08:40:17.903Z,6.41
2023-03-16T08:42:46.543Z,6.48
2023-03-16T08:45:15.126Z,6.46
2023-03-16T08:47:44.379Z,6.71
2023-03-16T08:50:14.103Z,6.60
2023-03-16T08:52:42.876Z,6.33
2023-03-16T08:55:13.377Z,6.63
2023-03-16T08:57:45.186Z,7.26
2023-03-16T09:00:15.639Z,6.99
2023-03-16T09:02:45.716Z,7.01
2023-03-16T09:05:16.050Z,7.36
2023-03-16T09:07:44.931Z,7.41
2023-03-16T09:10:16.435Z,6.96
2023-03-16T09:12:47.304Z,6.71
2023-03-16T09:15:15.960Z,6.62
2023-03-16T09:17:45.839Z,7.15
2023-03-16T09:20:26.237Z,6.71
2023-03-16T09:22:57.010Z,6.57
2023-03-16T09:25:26.322Z,6.38
2023-03-16T09:27:56.312Z,6.64
2023-03-16T09:30:24.929Z,6.35
2023-03-16T09:32:53.618Z,6.73
2023-03-16T09:35:22.333Z,7.06
2023-03-16T09:38:05.239Z,7.36
2023-03-16T09:40:36.174Z,8.05
2023-03-16T09:43:22.186Z,7.70
2023-03-16T09:45:59.695Z,8.09
2023-03-16T09:48:30.076Z,7.29
2023-03-16T09:51:00.049Z,7.56
2023-03-16T09:53:31.305Z,7.12
2023-03-16T09:56:04.505Z,7.72
2023-03-16T09:58:34.568Z,7.67
2023-03-16T10:01:11.254Z,8.06
2023-03-16T10:04:00.640Z,8.10
2023-03-16T10:06:30.701Z,8.14
2023-03-16T10:09:06.987Z,8.11
2023-03-16T10:11:39.435Z,7.63
2023-03-16T10:14:17.763Z,7.75
2023-03-16T10:16:51.491Z,7.67
2023-03-16T10:19:25.426Z,7.37
2023-03-16T10:21:59.655Z,8.12
2023-03-16T10:24:40.524Z,7.32
2023-03-16T10:27:18.137Z,7.71
2023-03-16T10:29:48.722Z,7.93
2023-03-16T10:32:19.836Z,7.98
2023-03-16T10:34:56.162Z,8.57
2023-03-16T10:37:28.364Z,8.62
2023-03-16T10:39:57.426Z,8.54
2023-03-16T10:42:27.192Z,8.55
2023-03-16T10:45:03.005Z,8.64
2023-03-16T10:47:34.204Z,8.71
2023-03-16T10:50:14.448Z,8.80
2023-03-16T10:52:46.892Z,8.82
2023-03-16T10:55:22.198Z,8.74
2023-03-16T10:57:53.653Z,9.17
2023-03-16T11:00:29.012Z,9.30
2023-03-16T11:03:00.440Z,9.43
2023-03-16T11:05:32.416Z,9.21
2023-03-16T11:08:03.755Z,9.23
2023-03-16T11:10:40.432Z,9.46
2023-03-16T11:13:17.671Z,9.39
2023-03-16T11:15:45.621Z,9.78
2023-03-16T11:18:29.594Z,10.28
2023-03-16T11:21:02.701Z,10.87
2023-03-16T11:23:35.662Z,10.89
2023-03-16T11:26:09.760Z,10.47
2023-03-16T11:28:41.860Z,10.10
2023-03-16T11:31:20.484Z,10.29
2023-03-16T11:33:50.471Z,10.10
2023-03-16T11:36:39.550Z,10.43
2023-03-16T11:39:18.462Z,10.64
2023-03-16T11:41:59.993Z,10.56
2023-03-16T11:44:35.002Z,10.40
2023-03-16T11:47:18.507Z,10.55
2023-03-16T11:49:58.575Z,10.69
2023-03-16T11:52:39.830Z,10.47
2023-03-16T11:55:25.028Z,10.65
2023-03-16T11:58:04.557Z,10.94
2023-03-16T12:00:40.797Z,10.60
2023-03-16T12:03:45.859Z,10.56
2023-03-16T12:06:29.777Z,10.45
2023-03-16T12:09:28.812Z,10.40
2023-03-16T12:12:02.995Z,10.49
2023-03-16T12:14:38.286Z,10.48
2023-03-16T12:17:14.862Z,10.22
2023-03-16T12:19:47.567Z,10.25
2023-03-16T12:22:21.696Z,10.33
2023-03-16T12:24:50.924Z,10.32
2023-03-16T12:27:24.032Z,10.46
2023-03-16T12:30:03.922Z,10.27
2023-03-16T12:32:44.740Z,10.70
2023-03-16T12:35:28.383Z,10.46
2023-03-16T12:38:15.807Z,10.52
2023-03-16T12:40:53.994Z,10.43
2023-03-16T12:43:42.763Z,10.37
2023-03-16T12:46:15.700Z,10.32
2023-03-16T12:48:48.930Z,10.60
2023-03-16T12:51:17.616Z,10.28
2023-03-16T12:53:54.781Z,10.43
2023-03-16T12:56:31.111Z,10.61
2023-03-16T12:59:02.125Z,10.60
2023-03-16T13:01:38.606Z,10.82
2023-03-16T13:04:13.593Z,10.99
2023-03-16T13:06:47.563Z,10.91
2023-03-16T13:09:22.859Z,10.67
2023-03-16T13:11:53.412Z,11.01
2023-03-16T13:14:40.862Z,11.26
2023-03-16T13:17:27.272Z,11.24
2023-03-16T13:20:08.955Z,11.11
2023-03-16T13:22:46.592Z,11.44
2023-03-16T13:25:23.364Z,11.23
2023-03-16T13:27:55.556Z,11.52
2023-03-16T13:30:27.449Z,11.14
2023-03-16T13:33:00.708Z,11.46
2023-03-16T13:35:31.855Z,11.42
2023-03-16T13:38:06.578Z,11.30
2023-03-16T13:40:38.990Z,11.61
2023-03-16T13:43:07.527Z,11.40
2023-03-16T13:45:38.918Z,11.59
2023-03-16T13:48:07.827Z,11.45
2023-03-16T13:50:38.725Z,11.77
2023-03-16T13:53:15.641Z,11.69
2023-03-16T13:55:48.506Z,11.98
2023-03-16T13:58:23.721Z,12.04
2023-03-16T14:00:58.118Z,11.83
2023-03-16T14:03:33.945Z,11.96
2023-03-16T14:06:03.515Z,12.07
2023-03-16T14:08:33.924Z,11.90
2023-03-16T14:11:05.042Z,12.14
2023-03-16T14:13:38.296Z,12.42
2023-03-16T14:16:14.273Z,12.19
2023-03-16T14:18:46.068Z,12.10
2023-03-16T14:21:18.815Z,12.06
2023-03-16T14:23:49.320Z,12.14
2023-03-16T14:26:24.896Z,12.19
2023-03-16T14:29:02.896Z,12.11
2023-03-16T14:31:38.659Z,12.16
2023-03-16T14:34:21.385Z,12.26
2023-03-16T14:36:49.861Z,12.16
2023-03-16T14:39:22.895Z,12.31
2023-03-16T14:41:53.556Z,12.14
2023-03-16T14:44:25.729Z,12.20
2023-03-16T14:46:57.392Z,12.34
2023-03-16T14:49:30.622Z,12.32
2023-03-16T14:52:03.297Z,12.28
2023-03-16T14:54:32.049Z,12.39
2023-03-16T14:57:05.534Z,12.30
2023-03-16T14:59:34.873Z,12.13
2023-03-16T15:02:08.308Z,12.29
2023-03-16T15:04:38.364Z,12.32
2023-03-16T15:07:23.964Z,12.57
2023-03-16T15:09:54.441Z,12.46
2023-03-16T15:12:26.260Z,12.42
2023-03-16T15:15:12.330Z,12.45
2023-03-16T15:17:40.607Z,12.47
2023-03-16T15:20:11.953Z,12.39
2023-03-16T15:22:41.735Z,12.35
2023-03-16T15:25:25.524Z,12.35
2023-03-16T15:27:55.810Z,12.26
2023-03-16T15:30:27.092Z,12.33
2023-03-16T15:32:55.641Z,12.24
2023-03-16T15:35:24.087Z,12.27
2023-03-16T15:37:52.482Z,12.03
2023-03-16T15:40:24.416Z,11.92
2023-03-16T15:42:54.496Z,11.89
2023-03-16T15:45:24.624Z,11.85
2023-03-16T15:47:55.256Z,12.02
2023-03-16T15:50:25.823Z,11.94
2023-03-16T15:52:58.660Z,11.73
2023-03-16T15:55:36.284Z,11.76
2023-03-16T15:58:06.947Z,11.89
2023-03-16T16:00:39.647Z,11.71
2023-03-16T16:03:08.487Z,11.69
2023-03-16T16:05:36.799Z,11.81
2023-03-16T16:08:05.263Z,11.68
2023-03-16T16:10:34.344Z,11.50
2023-03-16T16:13:03.245Z,11.49
2023-03-16T16:15:37.063Z,11.48
2023-03-16T16:18:26.595Z,11.66
2023-03-16T16:20:55.179Z,11.64
2023-03-16T16:23:23.783Z,11.49
2023-03-16T16:25:53.183Z,11.45
2023-03-16T16:28:24.874Z,11.43
2023-03-16T16:30:54.880Z,11.65
2023-03-16T16:33:26.746Z,11.54
2023-03-16T16:35:57.698Z,11.42
2023-03-16T16:38:26.491Z,11.44
2023-03-16T16:40:58.566Z,11.29
2023-03-16T16:43:33.656Z,11.33
2023-03-16T16:46:06.776Z,11.24
2023-03-16T16:48:39.399Z,11.18
2023-03-16T16:51:17.648Z,11.14
2023-03-16T16:53:46.755Z,11.10
2023-03-16T16:56:17.919Z,11.03
2023-03-16T16:58:46.833Z,11.05
2023-03-16T17:01:24.344Z,11.15
2023-03-16T17:03:52.693Z,11.09
2023-03-16T17:06:22.311Z,10.89
2023-03-16T17:08:52.335Z,10.99
2023-03-16T17:11:24.922Z,10.92
2023-03-16T17:13:55.413Z,10.82
2023-03-16T17:16:26.709Z,10.79
2023-03-16T17:18:55.578Z,10.71
2023-03-16T17:21:26.135Z,10.72
2023-03-16T17:23:55.125Z,10.71
2023-03-16T17:26:26.404Z,10.81
2023-03-16T17:28:58.478Z,10.73
2023-03-16T17:31:35.071Z,10.47
2023-03-16T17:34:10.692Z,10.73
2023-03-16T17:36:39.045Z,10.77
2023-03-16T17:39:17.262Z,10.70
2023-03-16T17:41:46.939Z,10.52
2023-03-16T17:44:16.377Z,10.34
2023-03-16T17:46:46.388Z,10.38
2023-03-16T17:49:17.663Z,10.40
2023-03-16T17:51:46.576Z,10.31
2023-03-16T17:54:15.069Z,10.27
2023-03-16T17:56:52.853Z,10.30
2023-03-16T17:59:23.715Z,10.45
2023-03-16T18:01:53.448Z,10.20
2023-03-16T18:04:24.517Z,10.47
2023-03-16T18:06:54.354Z,10.78
2023-03-16T18:09:22.714Z,10.45
2023-03-16T18:11:52.578Z,10.23
2023-03-16T18:14:36.026Z,10.14
2023-03-16T18:17:17.006Z,10.13
2023-03-16T18:19:47.006Z,10.18
2023-03-16T18:22:20.223Z,10.20
2023-03-16T18:24:50.095Z,10.18
2023-03-16T18:27:18.641Z,10.03
2023-03-16T18:29:48.246Z,10.10
2023-03-16T18:32:24.246Z,9.84
2023-03-16T18:34:53.734Z,10.15
2023-03-16T18:37:25.242Z,10.21
2023-03-16T18:39:55.289Z,10.11
2023-03-16T18:42:25.898Z,10.09
2023-03-16T18:44:54.761Z,10.30
2023-03-16T18:47:31.476Z,9.97
2023-03-16T18:50:00.539Z,10.01
2023-03-16T18:52:32.853Z,9.91
2023-03-16T18:55:01.516Z,9.99
2023-03-16T18:57:31.797Z,9.86
2023-03-16T19:00:00.254Z,10.10
2023-03-16T19:02:37.359Z,9.99
2023-03-16T19:05:10.003Z,10.04
2023-03-16T19:07:42.236Z,9.86
2023-03-16T19:10:26.410Z,9.82
2023-03-16T19:12:55.563Z,10.03
2023-03-16T19:15:27.998Z,9.99
2023-03-16T19:17:58.841Z,9.94
2023-03-16T19:20:29.941Z,10.06
2023-03-16T19:23:03.868Z,10.01
2023-03-16T19:25:36.252Z,9.96
2023-03-16T19:28:05.778Z,9.79
2023-03-16T19:30:37.008Z,9.81
2023-03-16T19:33:22.056Z,9.91
2023-03-16T19:35:52.481Z,9.73
2023-03-16T19:38:21.598Z,9.75
2023-03-16T19:40:54.548Z,9.43
2023-03-16T19:43:23.869Z,9.67
2023-03-16T19:45:52.905Z,9.85
2023-03-16T19:48:29.051Z,9.81
2023-03-16T19:50:57.340Z,9.73
2023-03-16T19:53:26.344Z,9.54
2023-03-16T19:55:55.695Z,9.94
2023-03-16T19:58:32.350Z,9.64
2023-03-16T20:01:02.187Z,9.65
2023-03-16T20:03:37.515Z,9.73
2023-03-16T20:06:06.381Z,9.62
2023-03-16T20:08:34.677Z,9.54
2023-03-16T20:11:07.499Z,9.35
2023-03-16T20:13:36.821Z,9.59
2023-03-16T20:16:05.497Z,9.40
2023-03-16T20:18:35.145Z,9.34
2023-03-16T20:21:03.452Z,9.81
2023-03-16T20:23:31.809Z,9.90
2023-03-16T20:26:03.029Z,9.48
2023-03-16T20:28:36.812Z,9.39
2023-03-16T20:31:08.462Z,9.42
2023-03-16T20:33:38.286Z,9.26
2023-03-16T20:36:07.802Z,9.60
2023-03-16T20:38:36.202Z,9.49
2023-03-16T20:41:04.840Z,9.40
2023-03-16T20:43:34.217Z,9.29
2023-03-16T20:46:03.901Z,9.68
2023-03-16T20:48:32.912Z,9.28
2023-03-16T20:51:02.820Z,9.18
2023-03-16T20:53:31.346Z,9.12
2023-03-16T20:55:59.726Z,9.03
2023-03-16T20:58:36.585Z,9.39
2023-03-16T21:01:05.778Z,9.42
2023-03-16T21:03:34.768Z,9.34
2023-03-16T21:06:07.748Z,9.20
2023-03-16T21:08:36.072Z,9.29
2023-03-16T21:11:04.506Z,9.34
2023-03-16T21:13:34.569Z,9.17
2023-03-16T21:16:04.788Z,9.03
2023-03-16T21:18:33.196Z,9.21
2023-03-16T21:21:03.273Z,9.08
2023-03-16T21:23:31.838Z,9.05
2023-03-16T21:26:03.828Z,9.27
2023-03-16T21:28:35.586Z,9.25
2023-03-16T21:31:04.236Z,9.51
2023-03-16T21:33:35.212Z,9.79
2023-03-16T21:36:08.734Z,9.52
2023-03-16T21:38:37.042Z,9.09
2023-03-16T21:41:07.274Z,9.40
2023-03-16T21:43:35.582Z,9.31
2023-03-16T21:46:04.277Z,9.28
2023-03-16T21:48:37.546Z,9.28
2023-03-16T21:51:14.548Z,9.04
2023-03-16T21:53:43.305Z,9.41
2023-03-16T21:56:19.760Z,9.17
2023-03-16T21:58:48.450Z,9.36
2023-03-16T22:01:24.912Z,9.08
2023-03-16T22:03:57.462Z,8.95
2023-03-16T22:06:29.024Z,9.14
2023-03-16T22:08:58.244Z,9.07
2023-03-16T22:11:29.953Z,9.29
2023-03-16T22:14:00.135Z,9.20
2023-03-16T22:16:32.607Z,9.31
2023-03-16T22:19:01.219Z,9.49
2023-03-16T22:21:36.451Z,9.37
2023-03-16T22:24:07.250Z,9.14
2023-03-16T22:26:35.688Z,9.10
2023-03-16T22:29:07.731Z,9.12
2023-03-16T22:31:39.209Z,9.26
2023-03-16T22:34:11.148Z,9.14
2023-03-16T22:36:40.926Z,9.53
2023-03-16T22:39:12.980Z,9.39
2023-03-16T22:41:41.345Z,9.38
2023-03-16T22:44:20.156Z,9.43
2023-03-16T22:46:50.328Z,9.66
2023-03-16T22:49:23.306Z,9.45
2023-03-16T22:51:56.335Z,9.58
2023-03-16T22:54:28.362Z,9.57
2023-03-16T22:56:56.925Z,9.07
2023-03-16T22:59:27.765Z,9.05
2023-03-16T23:01:56.540Z,9.45
2023-03-16T23:04:30.091Z,9.23
2023-03-16T23:07:00.715Z,9.56
2023-03-16T23:09:29.776Z,9.50
2023-03-16T23:11:59.549Z,9.60
2023-03-16T23:14:32.881Z,9.38
2023-03-16T23:17:01.757Z,9.27
2023-03-16T23:19:32.952Z,9.39
2023-03-16T23:22:05.683Z,9.40
2023-03-16T23:24:34.737Z,9.56
2023-03-16T23:27:03.996Z,9.46
2023-03-16T23:29:32.689Z,9.77
2023-03-16T23:32:01.245Z,9.57
2023-03-16T23:34:29.557Z,9.33
2023-03-16T23:36:57.851Z,9.22
2023-03-16T23:39:28.786Z,9.67
2023-03-16T23:41:57.375Z,9.66
2023-03-16T23:44:29.633Z,9.71
2023-03-16T23:46:58.265Z,9.46
2023-03-16T23:49:30.139Z,9.49
2023-03-16T23:52:01.674Z,9.48
2023-03-16T23:54:33.363Z,9.48
2023-03-16T23:57:02.144Z,9.36
2023-03-16T23:59:30.539Z,9.53
